sensor_id;sensor_type;location;lat;lon;timestamp;P1;durP1;ratioP1;P2;durP2;ratioP2
44204;SDS011;30163;42.698;23.344;2023-07-28T00:00:32;16.30;;;7.50;;
44204;SDS011;30163;42.698;23.344;2023-07-28T00:02:57;11.70;;;6.75;;
44204;SDS011;30163;42.698;23.344;2023-07-28T00:05:23;10.90;;;7.90;;
44204;SDS011;30163;42.698;23.344;2023-07-28T00:07:48;14.98;;;6.70;;
44204;SDS011;30163;42.698;23.344;2023-07-28T00:10:14;11.43;;;7.45;;
44204;SDS011;30163;42.698;23.344;2023-07-28T00:12:39;11.15;;;7.15;;
44204;SDS011;30163;42.698;23.344;2023-07-28T00:15:05;14.23;;;6.95;;
44204;SDS011;30163;42.698;23.344;2023-07-28T00:17:30;9.13;;;7.50;;
44204;SDS011;30163;42.698;23.344;2023-07-28T00:19:56;10.18;;;7.28;;
44204;SDS011;30163;42.698;23.344;2023-07-28T00:22:21;10.77;;;7.35;;
44204;SDS011;30163;42.698;23.344;2023-07-28T00:24:47;15.48;;;6.97;;
44204;SDS011;30163;42.698;23.344;2023-07-28T00:27:12;15.35;;;7.18;;
44204;SDS011;30163;42.698;23.344;2023-07-28T00:29:40;8.82;;;6.47;;
44204;SDS011;30163;42.698;23.344;2023-07-28T00:32:06;11.35;;;7.18;;
44204;SDS011;30163;42.698;23.344;2023-07-28T00:34:32;10.65;;;6.82;;
44204;SDS011;30163;42.698;23.344;2023-07-28T00:36:57;11.23;;;7.00;;
44204;SDS011;30163;42.698;23.344;2023-07-28T00:39:22;12.48;;;6.72;;
44204;SDS011;30163;42.698;23.344;2023-07-28T00:41:48;13.65;;;7.65;;
44204;SDS011;30163;42.698;23.344;2023-07-28T00:44:13;10.05;;;7.07;;
44204;SDS011;30163;42.698;23.344;2023-07-28T00:46:41;9.82;;;7.82;;
44204;SDS011;30163;42.698;23.344;2023-07-28T00:49:06;14.80;;;7.45;;
44204;SDS011;30163;42.698;23.344;2023-07-28T00:51:32;14.00;;;7.88;;
44204;SDS011;30163;42.698;23.344;2023-07-28T00:53:57;25.20;;;8.10;;
44204;SDS011;30163;42.698;23.344;2023-07-28T00:56:24;11.85;;;8.52;;
44204;SDS011;30163;42.698;23.344;2023-07-28T00:58:50;13.55;;;8.20;;
44204;SDS011;30163;42.698;23.344;2023-07-28T01:01:16;14.52;;;7.65;;
44204;SDS011;30163;42.698;23.344;2023-07-28T01:03:42;12.32;;;8.30;;
44204;SDS011;30163;42.698;23.344;2023-07-28T01:06:15;18.08;;;9.25;;
44204;SDS011;30163;42.698;23.344;2023-07-28T01:08:47;13.52;;;7.88;;
44204;SDS011;30163;42.698;23.344;2023-07-28T01:11:15;11.57;;;7.18;;
44204;SDS011;30163;42.698;23.344;2023-07-28T01:13:41;18.98;;;6.90;;
44204;SDS011;30163;42.698;23.344;2023-07-28T01:16:06;11.80;;;6.75;;
44204;SDS011;30163;42.698;23.344;2023-07-28T01:18:32;10.05;;;5.95;;
44204;SDS011;30163;42.698;23.344;2023-07-28T01:20:58;9.80;;;5.30;;
44204;SDS011;30163;42.698;23.344;2023-07-28T01:23:44;9.10;;;5.75;;
44204;SDS011;30163;42.698;23.344;2023-07-28T01:26:24;12.07;;;6.10;;
44204;SDS011;30163;42.698;23.344;2023-07-28T01:28:59;11.48;;;5.70;;
44204;SDS011;30163;42.698;23.344;2023-07-28T01:31:26;7.03;;;5.00;;
44204;SDS011;30163;42.698;23.344;2023-07-28T01:33:51;11.93;;;5.28;;
44204;SDS011;30163;42.698;23.344;2023-07-28T01:36:16;7.53;;;5.13;;
44204;SDS011;30163;42.698;23.344;2023-07-28T01:38:42;7.30;;;5.13;;
44204;SDS011;30163;42.698;23.344;2023-07-28T01:41:07;6.68;;;4.65;;
44204;SDS011;30163;42.698;23.344;2023-07-28T01:43:33;8.75;;;5.20;;
44204;SDS011;30163;42.698;23.344;2023-07-28T01:45:58;7.55;;;4.80;;
44204;SDS011;30163;42.698;23.344;2023-07-28T01:48:23;11.70;;;5.03;;
44204;SDS011;30163;42.698;23.344;2023-07-28T01:50:49;11.93;;;5.18;;
44204;SDS011;30163;42.698;23.344;2023-07-28T01:53:14;12.40;;;4.78;;
44204;SDS011;30163;42.698;23.344;2023-07-28T01:55:39;9.50;;;4.75;;
44204;SDS011;30163;42.698;23.344;2023-07-28T01:58:05;10.18;;;5.72;;
44204;SDS011;30163;42.698;23.344;2023-07-28T02:00:30;8.25;;;5.00;;
44204;SDS011;30163;42.698;23.344;2023-07-28T02:02:56;7.82;;;4.95;;
44204;SDS011;30163;42.698;23.344;2023-07-28T02:05:23;9.68;;;5.50;;
44204;SDS011;30163;42.698;23.344;2023-07-28T02:07:48;15.15;;;5.72;;
44204;SDS011;30163;42.698;23.344;2023-07-28T02:10:14;8.13;;;5.95;;
44204;SDS011;30163;42.698;23.344;2023-07-28T02:12:39;10.23;;;6.07;;
44204;SDS011;30163;42.698;23.344;2023-07-28T02:15:05;10.45;;;5.50;;
44204;SDS011;30163;42.698;23.344;2023-07-28T02:17:31;11.65;;;5.50;;
44204;SDS011;30163;42.698;23.344;2023-07-28T02:19:57;6.90;;;5.30;;
44204;SDS011;30163;42.698;23.344;2023-07-28T02:22:22;6.78;;;4.68;;
44204;SDS011;30163;42.698;23.344;2023-07-28T02:24:47;12.98;;;5.07;;
44204;SDS011;30163;42.698;23.344;2023-07-28T02:27:13;13.05;;;4.65;;
44204;SDS011;30163;42.698;23.344;2023-07-28T02:29:38;12.63;;;4.57;;
44204;SDS011;30163;42.698;23.344;2023-07-28T02:32:04;7.20;;;4.72;;
44204;SDS011;30163;42.698;23.344;2023-07-28T02:34:30;9.52;;;4.55;;
44204;SDS011;30163;42.698;23.344;2023-07-28T02:36:55;14.15;;;6.78;;
44204;SDS011;30163;42.698;23.344;2023-07-28T02:39:20;7.57;;;6.30;;
44204;SDS011;30163;42.698;23.344;2023-07-28T02:41:46;13.77;;;5.68;;
44204;SDS011;30163;42.698;23.344;2023-07-28T02:44:12;17.30;;;5.93;;
44204;SDS011;30163;42.698;23.344;2023-07-28T02:46:37;9.82;;;6.10;;
44204;SDS011;30163;42.698;23.344;2023-07-28T02:49:02;9.88;;;6.63;;
44204;SDS011;30163;42.698;23.344;2023-07-28T02:51:29;9.50;;;6.40;;
44204;SDS011;30163;42.698;23.344;2023-07-28T02:53:55;8.90;;;6.60;;
44204;SDS011;30163;42.698;23.344;2023-07-28T02:56:20;28.92;;;7.60;;
44204;SDS011;30163;42.698;23.344;2023-07-28T02:58:47;18.13;;;7.15;;
44204;SDS011;30163;42.698;23.344;2023-07-28T03:01:13;23.52;;;7.18;;
44204;SDS011;30163;42.698;23.344;2023-07-28T03:03:38;18.80;;;6.57;;
44204;SDS011;30163;42.698;23.344;2023-07-28T03:06:04;12.70;;;6.97;;
44204;SDS011;30163;42.698;23.344;2023-07-28T03:08:29;8.38;;;6.32;;
44204;SDS011;30163;42.698;23.344;2023-07-28T03:10:58;12.48;;;7.28;;
44204;SDS011;30163;42.698;23.344;2023-07-28T03:13:23;22.27;;;6.20;;
44204;SDS011;30163;42.698;23.344;2023-07-28T03:15:49;18.40;;;5.95;;
44204;SDS011;30163;42.698;23.344;2023-07-28T03:18:14;17.33;;;6.53;;
44204;SDS011;30163;42.698;23.344;2023-07-28T03:20:40;11.43;;;6.40;;
44204;SDS011;30163;42.698;23.344;2023-07-28T03:23:05;15.15;;;6.93;;
44204;SDS011;30163;42.698;23.344;2023-07-28T03:25:30;18.83;;;7.82;;
44204;SDS011;30163;42.698;23.344;2023-07-28T03:27:56;13.98;;;6.68;;
44204;SDS011;30163;42.698;23.344;2023-07-28T03:30:21;9.75;;;6.65;;
44204;SDS011;30163;42.698;23.344;2023-07-28T03:32:47;10.35;;;5.32;;
44204;SDS011;30163;42.698;23.344;2023-07-28T03:35:12;12.93;;;5.70;;
44204;SDS011;30163;42.698;23.344;2023-07-28T03:37:38;12.63;;;6.38;;
44204;SDS011;30163;42.698;23.344;2023-07-28T03:40:04;12.07;;;6.00;;
44204;SDS011;30163;42.698;23.344;2023-07-28T03:42:29;19.55;;;6.00;;
44204;SDS011;30163;42.698;23.344;2023-07-28T03:44:55;10.70;;;5.25;;
44204;SDS011;30163;42.698;23.344;2023-07-28T03:47:20;10.20;;;5.30;;
44204;SDS011;30163;42.698;23.344;2023-07-28T03:49:46;10.63;;;6.70;;
44204;SDS011;30163;42.698;23.344;2023-07-28T03:52:11;10.05;;;6.03;;
44204;SDS011;30163;42.698;23.344;2023-07-28T03:54:36;12.02;;;5.95;;
44204;SDS011;30163;42.698;23.344;2023-07-28T03:57:02;15.85;;;5.50;;
44204;SDS011;30163;42.698;23.344;2023-07-28T03:59:27;12.77;;;5.90;;
44204;SDS011;30163;42.698;23.344;2023-07-28T04:01:53;18.92;;;5.75;;
44204;SDS011;30163;42.698;23.344;2023-07-28T04:04:18;9.40;;;5.95;;
44204;SDS011;30163;42.698;23.344;2023-07-28T04:06:45;19.60;;;6.82;;
44204;SDS011;30163;42.698;23.344;2023-07-28T04:09:13;18.13;;;5.60;;
44204;SDS011;30163;42.698;23.344;2023-07-28T04:11:39;14.73;;;6.38;;
44204;SDS011;30163;42.698;23.344;2023-07-28T04:14:05;17.67;;;6.57;;
44204;SDS011;30163;42.698;23.344;2023-07-28T04:16:31;11.98;;;7.00;;
44204;SDS011;30163;42.698;23.344;2023-07-28T04:18:56;10.93;;;6.03;;
44204;SDS011;30163;42.698;23.344;2023-07-28T04:21:22;20.08;;;5.70;;
44204;SDS011;30163;42.698;23.344;2023-07-28T04:23:47;14.15;;;6.38;;
44204;SDS011;30163;42.698;23.344;2023-07-28T04:26:13;20.83;;;6.18;;
44204;SDS011;30163;42.698;23.344;2023-07-28T04:28:38;12.57;;;4.93;;
44204;SDS011;30163;42.698;23.344;2023-07-28T04:31:03;9.82;;;5.80;;
44204;SDS011;30163;42.698;23.344;2023-07-28T04:33:29;9.75;;;5.70;;
44204;SDS011;30163;42.698;23.344;2023-07-28T04:35:54;15.77;;;5.45;;
44204;SDS011;30163;42.698;23.344;2023-07-28T04:38:20;20.30;;;5.35;;
44204;SDS011;30163;42.698;23.344;2023-07-28T04:40:45;14.18;;;5.03;;
44204;SDS011;30163;42.698;23.344;2023-07-28T04:43:10;10.02;;;4.93;;
44204;SDS011;30163;42.698;23.344;2023-07-28T04:45:36;15.02;;;5.60;;
44204;SDS011;30163;42.698;23.344;2023-07-28T04:48:01;14.20;;;4.95;;
44204;SDS011;30163;42.698;23.344;2023-07-28T04:50:28;11.20;;;4.45;;
44204;SDS011;30163;42.698;23.344;2023-07-28T04:52:53;9.32;;;5.03;;
44204;SDS011;30163;42.698;23.344;2023-07-28T04:55:19;13.00;;;5.15;;
44204;SDS011;30163;42.698;23.344;2023-07-28T04:57:45;17.00;;;4.75;;
44204;SDS011;30163;42.698;23.344;2023-07-28T05:00:10;6.95;;;4.93;;
44204;SDS011;30163;42.698;23.344;2023-07-28T05:02:37;6.05;;;5.35;;
44204;SDS011;30163;42.698;23.344;2023-07-28T05:05:02;17.60;;;5.88;;
44204;SDS011;30163;42.698;23.344;2023-07-28T05:07:28;21.83;;;6.10;;
44204;SDS011;30163;42.698;23.344;2023-07-28T05:09:54;15.90;;;5.32;;
44204;SDS011;30163;42.698;23.344;2023-07-28T05:12:19;23.83;;;6.30;;
44204;SDS011;30163;42.698;23.344;2023-07-28T05:14:45;11.15;;;3.67;;
44204;SDS011;30163;42.698;23.344;2023-07-28T05:17:11;10.57;;;4.72;;
44204;SDS011;30163;42.698;23.344;2023-07-28T05:19:36;8.35;;;4.93;;
44204;SDS011;30163;42.698;23.344;2023-07-28T05:22:02;7.53;;;4.30;;
44204;SDS011;30163;42.698;23.344;2023-07-28T05:24:27;11.85;;;4.35;;
44204;SDS011;30163;42.698;23.344;2023-07-28T05:26:52;5.68;;;3.97;;
44204;SDS011;30163;42.698;23.344;2023-07-28T05:29:18;12.55;;;4.18;;
44204;SDS011;30163;42.698;23.344;2023-07-28T05:31:43;13.65;;;4.18;;
44204;SDS011;30163;42.698;23.344;2023-07-28T05:34:09;12.98;;;3.78;;
44204;SDS011;30163;42.698;23.344;2023-07-28T05:36:34;11.63;;;4.95;;
44204;SDS011;30163;42.698;23.344;2023-07-28T05:38:59;9.10;;;5.45;;
44204;SDS011;30163;42.698;23.344;2023-07-28T05:41:25;15.93;;;4.75;;
44204;SDS011;30163;42.698;23.344;2023-07-28T05:43:51;14.30;;;6.60;;
44204;SDS011;30163;42.698;23.344;2023-07-28T05:46:17;10.95;;;4.75;;
44204;SDS011;30163;42.698;23.344;2023-07-28T05:48:43;20.73;;;4.93;;
44204;SDS011;30163;42.698;23.344;2023-07-28T05:51:08;14.88;;;4.97;;
44204;SDS011;30163;42.698;23.344;2023-07-28T05:53:34;10.85;;;6.63;;
44204;SDS011;30163;42.698;23.344;2023-07-28T05:55:59;14.80;;;5.50;;
44204;SDS011;30163;42.698;23.344;2023-07-28T05:58:25;10.07;;;5.22;;
44204;SDS011;30163;42.698;23.344;2023-07-28T06:00:50;12.75;;;5.82;;
44204;SDS011;30163;42.698;23.344;2023-07-28T06:03:15;11.38;;;5.28;;
44204;SDS011;30163;42.698;23.344;2023-07-28T06:05:41;16.63;;;5.85;;
44204;SDS011;30163;42.698;23.344;2023-07-28T06:08:07;9.95;;;5.35;;
44204;SDS011;30163;42.698;23.344;2023-07-28T06:10:33;10.85;;;5.47;;
44204;SDS011;30163;42.698;23.344;2023-07-28T06:12:58;9.35;;;5.47;;
44204;SDS011;30163;42.698;23.344;2023-07-28T06:15:24;21.92;;;5.57;;
44204;SDS011;30163;42.698;23.344;2023-07-28T06:17:49;9.40;;;5.63;;
44204;SDS011;30163;42.698;23.344;2023-07-28T06:20:15;10.00;;;5.38;;
44204;SDS011;30163;42.698;23.344;2023-07-28T06:22:40;17.48;;;5.25;;
44204;SDS011;30163;42.698;23.344;2023-07-28T06:25:06;11.70;;;5.75;;
44204;SDS011;30163;42.698;23.344;2023-07-28T06:27:32;12.05;;;5.68;;
44204;SDS011;30163;42.698;23.344;2023-07-28T06:29:57;12.77;;;5.53;;
44204;SDS011;30163;42.698;23.344;2023-07-28T06:32:23;8.57;;;5.80;;
44204;SDS011;30163;42.698;23.344;2023-07-28T06:34:49;7.93;;;5.93;;
44204;SDS011;30163;42.698;23.344;2023-07-28T06:37:14;12.95;;;5.93;;
44204;SDS011;30163;42.698;23.344;2023-07-28T06:39:40;14.98;;;6.32;;
44204;SDS011;30163;42.698;23.344;2023-07-28T06:42:06;9.13;;;4.72;;
44204;SDS011;30163;42.698;23.344;2023-07-28T06:44:31;10.60;;;4.70;;
44204;SDS011;30163;42.698;23.344;2023-07-28T06:46:57;14.18;;;5.03;;
44204;SDS011;30163;42.698;23.344;2023-07-28T06:49:23;13.85;;;5.57;;
44204;SDS011;30163;42.698;23.344;2023-07-28T06:51:48;11.65;;;4.57;;
44204;SDS011;30163;42.698;23.344;2023-07-28T06:54:14;17.60;;;4.65;;
44204;SDS011;30163;42.698;23.344;2023-07-28T06:56:39;9.55;;;5.18;;
44204;SDS011;30163;42.698;23.344;2023-07-28T06:59:05;11.02;;;4.93;;
44204;SDS011;30163;42.698;23.344;2023-07-28T07:01:32;16.42;;;5.20;;
44204;SDS011;30163;42.698;23.344;2023-07-28T07:03:57;13.90;;;4.78;;
44204;SDS011;30163;42.698;23.344;2023-07-28T07:06:23;11.25;;;4.95;;
44204;SDS011;30163;42.698;23.344;2023-07-28T07:08:48;15.15;;;4.82;;
44204;SDS011;30163;42.698;23.344;2023-07-28T07:11:13;8.93;;;5.13;;
44204;SDS011;30163;42.698;23.344;2023-07-28T07:13:40;14.82;;;4.30;;
44204;SDS011;30163;42.698;23.344;2023-07-28T07:16:05;11.60;;;4.28;;
44204;SDS011;30163;42.698;23.344;2023-07-28T07:18:38;9.52;;;4.75;;
44204;SDS011;30163;42.698;23.344;2023-07-28T07:21:04;10.10;;;5.53;;
44204;SDS011;30163;42.698;23.344;2023-07-28T07:23:31;16.05;;;5.72;;
44204;SDS011;30163;42.698;23.344;2023-07-28T07:25:56;9.52;;;4.68;;
44204;SDS011;30163;42.698;23.344;2023-07-28T07:28:22;11.80;;;4.88;;
44204;SDS011;30163;42.698;23.344;2023-07-28T07:30:50;9.50;;;5.10;;
44204;SDS011;30163;42.698;23.344;2023-07-28T07:33:15;8.10;;;4.30;;
44204;SDS011;30163;42.698;23.344;2023-07-28T07:35:40;11.73;;;5.18;;
44204;SDS011;30163;42.698;23.344;2023-07-28T07:38:06;15.48;;;5.07;;
44204;SDS011;30163;42.698;23.344;2023-07-28T07:40:34;12.02;;;4.95;;
44204;SDS011;30163;42.698;23.344;2023-07-28T07:43:01;8.98;;;5.10;;
44204;SDS011;30163;42.698;23.344;2023-07-28T07:45:28;10.75;;;5.00;;
44204;SDS011;30163;42.698;23.344;2023-07-28T07:47:54;10.75;;;4.07;;
44204;SDS011;30163;42.698;23.344;2023-07-28T07:50:20;12.05;;;4.85;;
44204;SDS011;30163;42.698;23.344;2023-07-28T07:52:46;11.88;;;4.50;;
44204;SDS011;30163;42.698;23.344;2023-07-28T07:55:13;11.55;;;4.25;;
44204;SDS011;30163;42.698;23.344;2023-07-28T07:57:38;14.93;;;5.20;;
44204;SDS011;30163;42.698;23.344;2023-07-28T08:00:05;13.23;;;6.38;;
44204;SDS011;30163;42.698;23.344;2023-07-28T08:02:31;14.95;;;5.20;;
44204;SDS011;30163;42.698;23.344;2023-07-28T08:04:56;11.10;;;4.60;;
44204;SDS011;30163;42.698;23.344;2023-07-28T08:07:22;9.77;;;4.40;;
44204;SDS011;30163;42.698;23.344;2023-07-28T08:09:48;11.75;;;3.60;;
44204;SDS011;30163;42.698;23.344;2023-07-28T08:12:14;8.32;;;4.10;;
44204;SDS011;30163;42.698;23.344;2023-07-28T08:14:40;8.50;;;3.58;;
44204;SDS011;30163;42.698;23.344;2023-07-28T08:17:05;11.18;;;3.55;;
44204;SDS011;30163;42.698;23.344;2023-07-28T08:19:31;8.55;;;4.18;;
44204;SDS011;30163;42.698;23.344;2023-07-28T08:21:56;8.75;;;3.83;;
44204;SDS011;30163;42.698;23.344;2023-07-28T08:24:22;6.70;;;3.38;;
44204;SDS011;30163;42.698;23.344;2023-07-28T08:26:47;14.40;;;3.50;;
44204;SDS011;30163;42.698;23.344;2023-07-28T08:29:12;10.70;;;3.55;;
44204;SDS011;30163;42.698;23.344;2023-07-28T08:31:38;11.38;;;4.15;;
44204;SDS011;30163;42.698;23.344;2023-07-28T08:34:03;8.48;;;4.00;;
44204;SDS011;30163;42.698;23.344;2023-07-28T08:36:28;9.35;;;3.45;;
44204;SDS011;30163;42.698;23.344;2023-07-28T08:38:54;10.85;;;2.88;;
44204;SDS011;30163;42.698;23.344;2023-07-28T08:41:20;13.70;;;3.67;;
44204;SDS011;30163;42.698;23.344;2023-07-28T08:43:45;12.50;;;3.92;;
44204;SDS011;30163;42.698;23.344;2023-07-28T08:46:11;6.80;;;3.28;;
44204;SDS011;30163;42.698;23.344;2023-07-28T08:48:36;8.07;;;3.55;;
44204;SDS011;30163;42.698;23.344;2023-07-28T08:51:02;12.13;;;3.78;;
44204;SDS011;30163;42.698;23.344;2023-07-28T08:53:29;19.42;;;3.70;;
44204;SDS011;30163;42.698;23.344;2023-07-28T08:55:54;16.75;;;3.03;;
44204;SDS011;30163;42.698;23.344;2023-07-28T08:58:21;10.82;;;3.85;;
44204;SDS011;30163;42.698;23.344;2023-07-28T09:00:47;9.63;;;3.95;;
44204;SDS011;30163;42.698;23.344;2023-07-28T09:03:16;11.23;;;3.65;;
44204;SDS011;30163;42.698;23.344;2023-07-28T09:05:45;7.88;;;3.38;;
44204;SDS011;30163;42.698;23.344;2023-07-28T09:08:18;6.63;;;3.63;;
44204;SDS011;30163;42.698;23.344;2023-07-28T09:10:45;6.97;;;3.33;;
44204;SDS011;30163;42.698;23.344;2023-07-28T09:13:14;10.63;;;3.58;;
44204;SDS011;30163;42.698;23.344;2023-07-28T09:15:42;5.03;;;2.97;;
44204;SDS011;30163;42.698;23.344;2023-07-28T09:18:08;6.55;;;3.45;;
44204;SDS011;30163;42.698;23.344;2023-07-28T09:20:35;13.40;;;3.95;;
44204;SDS011;30163;42.698;23.344;2023-07-28T09:23:01;8.95;;;3.55;;
44204;SDS011;30163;42.698;23.344;2023-07-28T09:25:28;9.30;;;3.78;;
44204;SDS011;30163;42.698;23.344;2023-07-28T09:27:54;9.15;;;3.65;;
44204;SDS011;30163;42.698;23.344;2023-07-28T09:30:20;14.07;;;4.10;;
44204;SDS011;30163;42.698;23.344;2023-07-28T09:32:53;13.57;;;3.33;;
44204;SDS011;30163;42.698;23.344;2023-07-28T09:35:20;7.78;;;4.05;;
44204;SDS011;30163;42.698;23.344;2023-07-28T09:37:47;5.45;;;3.10;;
44204;SDS011;30163;42.698;23.344;2023-07-28T09:40:15;11.25;;;3.33;;
44204;SDS011;30163;42.698;23.344;2023-07-28T09:42:43;14.27;;;3.78;;
44204;SDS011;30163;42.698;23.344;2023-07-28T09:45:14;10.38;;;3.65;;
44204;SDS011;30163;42.698;23.344;2023-07-28T09:47:40;7.57;;;4.00;;
44204;SDS011;30163;42.698;23.344;2023-07-28T09:50:08;6.80;;;3.20;;
44204;SDS011;30163;42.698;23.344;2023-07-28T09:52:38;10.00;;;3.30;;
44204;SDS011;30163;42.698;23.344;2023-07-28T09:55:09;10.70;;;3.80;;
44204;SDS011;30163;42.698;23.344;2023-07-28T09:57:43;11.30;;;3.13;;
44204;SDS011;30163;42.698;23.344;2023-07-28T10:00:11;10.88;;;4.28;;
44204;SDS011;30163;42.698;23.344;2023-07-28T10:02:38;7.20;;;3.08;;
44204;SDS011;30163;42.698;23.344;2023-07-28T10:05:07;8.77;;;3.08;;
44204;SDS011;30163;42.698;23.344;2023-07-28T10:07:40;11.25;;;3.30;;
44204;SDS011;30163;42.698;23.344;2023-07-28T10:10:08;7.55;;;3.70;;
44204;SDS011;30163;42.698;23.344;2023-07-28T10:12:42;7.30;;;3.65;;
44204;SDS011;30163;42.698;23.344;2023-07-28T10:15:12;25.80;;;3.88;;
44204;SDS011;30163;42.698;23.344;2023-07-28T10:17:41;7.22;;;3.78;;
44204;SDS011;30163;42.698;23.344;2023-07-28T10:22:53;7.50;;;3.45;;
44204;SDS011;30163;42.698;23.344;2023-07-28T10:25:25;11.80;;;4.05;;
44204;SDS011;30163;42.698;23.344;2023-07-28T10:27:51;6.22;;;3.65;;
44204;SDS011;30163;42.698;23.344;2023-07-28T10:30:17;7.70;;;3.78;;
44204;SDS011;30163;42.698;23.344;2023-07-28T10:32:43;11.38;;;3.80;;
44204;SDS011;30163;42.698;23.344;2023-07-28T10:37:38;9.30;;;3.50;;
44204;SDS011;30163;42.698;23.344;2023-07-28T10:43:04;9.02;;;3.63;;
44204;SDS011;30163;42.698;23.344;2023-07-28T10:45:30;13.48;;;4.10;;
44204;SDS011;30163;42.698;23.344;2023-07-28T10:47:57;11.73;;;3.80;;
44204;SDS011;30163;42.698;23.344;2023-07-28T10:50:28;7.93;;;3.42;;
44204;SDS011;30163;42.698;23.344;2023-07-28T10:52:55;7.35;;;3.70;;
44204;SDS011;30163;42.698;23.344;2023-07-28T10:55:22;17.67;;;4.00;;
44204;SDS011;30163;42.698;23.344;2023-07-28T10:57:49;13.50;;;3.72;;
44204;SDS011;30163;42.698;23.344;2023-07-28T11:00:17;11.02;;;3.40;;
44204;SDS011;30163;42.698;23.344;2023-07-28T11:05:22;13.45;;;3.58;;
44204;SDS011;30163;42.698;23.344;2023-07-28T11:07:48;12.32;;;3.60;;
44204;SDS011;30163;42.698;23.344;2023-07-28T11:10:15;7.85;;;3.28;;
44204;SDS011;30163;42.698;23.344;2023-07-28T11:12:41;13.35;;;4.25;;
44204;SDS011;30163;42.698;23.344;2023-07-28T11:15:08;7.68;;;2.92;;
44204;SDS011;30163;42.698;23.344;2023-07-28T11:17:38;10.55;;;3.50;;
44204;SDS011;30163;42.698;23.344;2023-07-28T11:20:05;10.85;;;3.38;;
44204;SDS011;30163;42.698;23.344;2023-07-28T11:22:43;13.05;;;3.80;;
44204;SDS011;30163;42.698;23.344;2023-07-28T11:25:09;4.10;;;2.85;;
44204;SDS011;30163;42.698;23.344;2023-07-28T11:27:36;10.05;;;3.00;;
44204;SDS011;30163;42.698;23.344;2023-07-28T11:30:02;10.38;;;3.25;;
44204;SDS011;30163;42.698;23.344;2023-07-28T11:32:33;5.60;;;3.20;;
44204;SDS011;30163;42.698;23.344;2023-07-28T11:35:03;5.82;;;3.60;;
44204;SDS011;30163;42.698;23.344;2023-07-28T11:37:35;7.43;;;3.15;;
44204;SDS011;30163;42.698;23.344;2023-07-28T11:40:02;5.78;;;3.03;;
44204;SDS011;30163;42.698;23.344;2023-07-28T11:42:32;6.82;;;3.00;;
44204;SDS011;30163;42.698;23.344;2023-07-28T11:44:59;4.30;;;3.00;;
44204;SDS011;30163;42.698;23.344;2023-07-28T11:47:25;7.22;;;3.65;;
44204;SDS011;30163;42.698;23.344;2023-07-28T11:49:50;4.68;;;3.05;;
44204;SDS011;30163;42.698;23.344;2023-07-28T11:52:16;10.98;;;3.30;;
44204;SDS011;30163;42.698;23.344;2023-07-28T11:54:42;10.52;;;3.38;;
44204;SDS011;30163;42.698;23.344;2023-07-28T11:57:09;6.50;;;3.03;;
44204;SDS011;30163;42.698;23.344;2023-07-28T11:59:34;6.50;;;3.22;;
44204;SDS011;30163;42.698;23.344;2023-07-28T12:02:01;7.68;;;2.47;;
44204;SDS011;30163;42.698;23.344;2023-07-28T12:04:28;6.35;;;2.78;;
44204;SDS011;30163;42.698;23.344;2023-07-28T12:07:08;7.57;;;3.10;;
44204;SDS011;30163;42.698;23.344;2023-07-28T12:12:28;7.55;;;2.97;;
44204;SDS011;30163;42.698;23.344;2023-07-28T12:14:58;7.88;;;3.25;;
44204;SDS011;30163;42.698;23.344;2023-07-28T12:17:30;3.80;;;2.78;;
44204;SDS011;30163;42.698;23.344;2023-07-28T12:20:08;4.88;;;2.83;;
44204;SDS011;30163;42.698;23.344;2023-07-28T12:22:40;6.70;;;2.67;;
44204;SDS011;30163;42.698;23.344;2023-07-28T12:25:06;12.30;;;3.53;;
44204;SDS011;30163;42.698;23.344;2023-07-28T12:27:32;4.68;;;3.38;;
44204;SDS011;30163;42.698;23.344;2023-07-28T12:29:58;5.03;;;3.13;;
44204;SDS011;30163;42.698;23.344;2023-07-28T12:32:23;11.27;;;3.20;;
44204;SDS011;30163;42.698;23.344;2023-07-28T12:34:49;5.95;;;3.13;;
44204;SDS011;30163;42.698;23.344;2023-07-28T12:37:15;6.03;;;3.00;;
44204;SDS011;30163;42.698;23.344;2023-07-28T12:39:41;6.97;;;3.40;;
44204;SDS011;30163;42.698;23.344;2023-07-28T12:42:07;12.32;;;3.75;;
44204;SDS011;30163;42.698;23.344;2023-07-28T12:44:33;5.50;;;3.42;;
44204;SDS011;30163;42.698;23.344;2023-07-28T12:46:58;10.70;;;3.05;;
44204;SDS011;30163;42.698;23.344;2023-07-28T12:49:24;10.15;;;3.38;;
44204;SDS011;30163;42.698;23.344;2023-07-28T12:51:49;13.55;;;3.33;;
44204;SDS011;30163;42.698;23.344;2023-07-28T12:54:15;5.85;;;3.45;;
44204;SDS011;30163;42.698;23.344;2023-07-28T12:56:40;6.10;;;2.75;;
44204;SDS011;30163;42.698;23.344;2023-07-28T12:59:06;5.15;;;2.65;;
44204;SDS011;30163;42.698;23.344;2023-07-28T13:01:32;5.35;;;2.40;;
44204;SDS011;30163;42.698;23.344;2023-07-28T13:03:58;5.45;;;3.00;;
44204;SDS011;30163;42.698;23.344;2023-07-28T13:06:23;6.18;;;2.53;;
44204;SDS011;30163;42.698;23.344;2023-07-28T13:08:48;4.88;;;3.15;;
44204;SDS011;30163;42.698;23.344;2023-07-28T13:11:14;3.42;;;2.50;;
44204;SDS011;30163;42.698;23.344;2023-07-28T13:13:39;5.28;;;3.00;;
44204;SDS011;30163;42.698;23.344;2023-07-28T13:16:06;3.15;;;2.70;;
44204;SDS011;30163;42.698;23.344;2023-07-28T13:18:31;3.67;;;2.55;;
44204;SDS011;30163;42.698;23.344;2023-07-28T13:20:58;2.90;;;2.40;;
44204;SDS011;30163;42.698;23.344;2023-07-28T13:23:23;6.32;;;2.85;;
44204;SDS011;30163;42.698;23.344;2023-07-28T13:25:49;5.78;;;2.40;;
44204;SDS011;30163;42.698;23.344;2023-07-28T13:28:15;8.60;;;2.70;;
44204;SDS011;30163;42.698;23.344;2023-07-28T13:30:40;3.30;;;2.55;;
44204;SDS011;30163;42.698;23.344;2023-07-28T13:33:06;6.25;;;2.75;;
44204;SDS011;30163;42.698;23.344;2023-07-28T13:35:31;5.45;;;2.72;;
44204;SDS011;30163;42.698;23.344;2023-07-28T13:37:57;3.72;;;3.00;;
44204;SDS011;30163;42.698;23.344;2023-07-28T13:40:22;5.03;;;2.70;;
44204;SDS011;30163;42.698;23.344;2023-07-28T13:42:48;3.55;;;2.70;;
44204;SDS011;30163;42.698;23.344;2023-07-28T13:45:13;8.23;;;2.80;;
44204;SDS011;30163;42.698;23.344;2023-07-28T13:47:39;4.13;;;2.58;;
44204;SDS011;30163;42.698;23.344;2023-07-28T13:50:04;7.43;;;3.05;;
44204;SDS011;30163;42.698;23.344;2023-07-28T13:52:31;5.43;;;3.08;;
44204;SDS011;30163;42.698;23.344;2023-07-28T13:54:56;9.57;;;2.67;;
44204;SDS011;30163;42.698;23.344;2023-07-28T13:57:22;4.40;;;2.42;;
44204;SDS011;30163;42.698;23.344;2023-07-28T13:59:47;4.90;;;2.70;;
44204;SDS011;30163;42.698;23.344;2023-07-28T14:02:13;3.30;;;2.80;;
44204;SDS011;30163;42.698;23.344;2023-07-28T14:04:38;6.60;;;2.55;;
44204;SDS011;30163;42.698;23.344;2023-07-28T14:07:04;4.00;;;2.55;;
44204;SDS011;30163;42.698;23.344;2023-07-28T14:09:29;5.50;;;3.10;;
44204;SDS011;30163;42.698;23.344;2023-07-28T14:11:54;2.83;;;2.42;;
44204;SDS011;30163;42.698;23.344;2023-07-28T14:14:20;10.27;;;3.85;;
44204;SDS011;30163;42.698;23.344;2023-07-28T14:16:45;3.80;;;2.95;;
44204;SDS011;30163;42.698;23.344;2023-07-28T14:19:11;6.38;;;2.70;;
44204;SDS011;30163;42.698;23.344;2023-07-28T14:21:36;3.80;;;3.20;;
44204;SDS011;30163;42.698;23.344;2023-07-28T14:24:03;7.15;;;3.25;;
44204;SDS011;30163;42.698;23.344;2023-07-28T14:26:30;7.45;;;3.05;;
44204;SDS011;30163;42.698;23.344;2023-07-28T14:28:55;7.32;;;3.00;;
44204;SDS011;30163;42.698;23.344;2023-07-28T14:31:21;4.35;;;2.65;;
44204;SDS011;30163;42.698;23.344;2023-07-28T14:33:46;5.60;;;2.63;;